METAR - Ísland

Uppfært síðast 21.04.2021 - kl. 14:30

SIGMET síðustu 6 klst.

Engin SIGMET skeyti bárust síðustu 6 klst.

METAR síðustu 3 klst

Flugv.TímiSkeyti
BIAR2021-04-21 14.00METAR BIAR 211400Z 17015KT 9999 FEW033 BKN052 08/M01 Q1017
BIAR2021-04-21 13.00METAR BIAR 211300Z 18016KT 9999 BKN051 08/M01 Q1017
BIAR2021-04-21 12.00METAR BIAR 211200Z 18015KT 9999 OVC050 06/M02 Q1017
BIBD2021-04-21 14.00METAR BIBD 211400Z 18008KT 9999 BKN030 05/01 Q1017
BIBD2021-04-21 13.00METAR BIBD 211300Z 19009KT 9999 SCT025 BKN035 05/02 Q1017
BIBD2021-04-21 12.00METAR BIBD 211200Z 20010KT 9999 SCT030 BKN040 06/02 Q1017
BIEG2021-04-21 14.00METAR BIEG 211400Z 22012KT 9999 FEW045 SCT063 BKN130 07/M03 Q1018
BIEG2021-04-21 13.00METAR BIEG 211300Z 22011KT 9999 SCT045 BKN130 07/M03 Q1018
BIEG2021-04-21 12.00METAR BIEG 211200Z 21013KT 9999 SCT045 BKN130 06/M04 Q1018
BIGR2021-04-21 14.00METAR BIGR 211400Z 15008KT 9999 -RA SCT003 OVC007 02/01 Q1017
BIGR2021-04-21 12.00METAR BIGR 211200Z 15009KT 9999 OVC007 01/01 Q1018
BIHN2021-04-21 14.00METAR BIHN 211400Z 20007KT 9999 FEW070 06/M03 Q1020
BIHN2021-04-21 13.00METAR BIHN 211300Z 22009KT 9999 FEW070 07/M04 Q1020
BIHN2021-04-21 12.00METAR BIHN 211200Z 26005KT 9999 NSC 07/M06 Q1020
BIHN2021-04-21 11.34METAR BIHN 211134Z 25008KT 9999 NSC 07/M06 Q1020
BIIS2021-04-21 13.46METAR BIIS 211346Z 22011KT 9999 BKN003 OVC040 06/M01 Q1016
BIIS2021-04-21 13.00METAR BIIS 211300Z 22009KT 9999 BKN030 OVC040 06/M01 Q1016
BIIS2021-04-21 12.00METAR BIIS 211200Z 24008KT 9999 BKN028 OVC035 06/M01 Q1016
BIKF2021-04-21 14.00METAR BIKF 211400Z 18016KT 9999 BKN021 BKN047 07/02 Q1018
BIKF2021-04-21 13.30METAR BIKF 211330Z 19014KT 9999 BKN023 BKN047 07/02 Q1018
BIKF2021-04-21 13.00METAR BIKF 211300Z 18015KT 9999 SCT019 BKN047 07/02 Q1018
BIKF2021-04-21 12.30METAR BIKF 211230Z 19014KT 9999 SCT019 BKN047 07/02 Q1018
BIKF2021-04-21 12.00METAR BIKF 211200Z 18014KT 9999 FEW019 BKN047 07/02 Q1019
BIRK2021-04-21 14.00METAR BIRK 211400Z 18009KT 9999 FEW022 SCT041 OVC052 06/01 Q1019
BIRK2021-04-21 13.00METAR BIRK 211300Z 18008KT 9999 FEW023 SCT028 OVC048 06/01 Q1019
BIRK2021-04-21 12.00METAR BIRK 211200Z 19011KT 9999 -DZRA FEW028 SCT040 BKN046 05/02 Q1019
BITN2021-04-21 12.00METAR BITN 211200Z 18006KT 9999 OVC007 02/M01 Q1018
BIVM2021-04-21 14.00METAR BIVM 211400Z 15011KT 9999 FEW046 06/02 Q1020
BIVM2021-04-21 13.00METAR BIVM 211300Z 19010KT 9999 BKN045 07/01 Q1020
BIVM2021-04-21 12.00METAR BIVM 211200Z 20010KT 9999 BKN045 07/M00 Q1020
BIVO2021-04-21 12.00METAR BIVO 211200Z 03008KT 9999 BKN040 02/M01 Q1019

Textaspár eru skrifaðar af vakthafandi veðurfræðingi á Veðurstofu Íslands.




Aðrir tengdir vefir



Þetta vefsvæði byggir á Eplica